createdAt,value
2022-12-11T00:00:34.125Z,-1.59
2022-12-11T00:05:40.224Z,-1.59
2022-12-11T00:10:49.112Z,-1.65
2022-12-11T00:15:53.466Z,-1.65
2022-12-11T00:20:56.302Z,-1.64
2022-12-11T00:25:59.044Z,-1.64
2022-12-11T00:31:06.636Z,-1.62
2022-12-11T00:36:13.893Z,-1.59
2022-12-11T00:41:17.144Z,-1.59
2022-12-11T00:46:21.408Z,-1.58
2022-12-11T00:51:24.265Z,-1.60
2022-12-11T00:56:27.037Z,-1.54
2022-12-11T01:01:31.164Z,-1.54
2022-12-11T01:06:33.971Z,-1.56
2022-12-11T01:11:37.940Z,-1.52
2022-12-11T01:16:42.097Z,-1.53
2022-12-11T01:21:44.844Z,-1.58
2022-12-11T01:26:47.574Z,-1.52
2022-12-11T01:31:51.757Z,-1.53
2022-12-11T01:36:54.476Z,-1.50
2022-12-11T01:41:58.698Z,-1.48
2022-12-11T01:47:02.853Z,-1.52
2022-12-11T01:52:09.246Z,-1.48
2022-12-11T01:57:14.554Z,-1.46
2022-12-11T02:02:23.534Z,-1.40
2022-12-11T02:07:26.442Z,-1.41
2022-12-11T02:12:39.341Z,-1.37
2022-12-11T02:17:47.707Z,-1.33
2022-12-11T02:23:27.141Z,-1.36
2022-12-11T02:28:35.515Z,-1.35
2022-12-11T02:33:44.784Z,-1.27
2022-12-11T02:38:50.768Z,-1.29
2022-12-11T02:43:57.850Z,-1.33
2022-12-11T02:49:01.521Z,-1.26
2022-12-11T02:54:07.837Z,-1.25
2022-12-11T02:59:16.593Z,-1.29
2022-12-11T03:04:19.448Z,-1.25
2022-12-11T03:09:22.582Z,-1.28
2022-12-11T03:14:26.716Z,-1.28
2022-12-11T03:19:36.345Z,-1.26
2022-12-11T03:24:45.214Z,-1.26
2022-12-11T03:29:56.709Z,-1.26
2022-12-11T03:35:04.524Z,-1.23
2022-12-11T03:40:13.046Z,-1.26
2022-12-11T03:45:19.166Z,-1.28
2022-12-11T03:50:24.300Z,-1.26
2022-12-11T03:55:28.916Z,-1.24
2022-12-11T04:00:33.157Z,-1.27
2022-12-11T04:05:35.984Z,-1.27
2022-12-11T04:10:39.153Z,-1.25
2022-12-11T04:15:43.397Z,-1.22
2022-12-11T04:21:03.686Z,-1.22
2022-12-11T04:26:07.552Z,-1.17
2022-12-11T04:31:14.460Z,-1.25
2022-12-11T04:36:17.210Z,-1.20
2022-12-11T04:41:19.993Z,-1.19
2022-12-11T04:46:26.003Z,-1.23
2022-12-11T04:51:29.395Z,-1.19
2022-12-11T04:56:32.308Z,-1.18
2022-12-11T05:01:36.500Z,-1.19
2022-12-11T05:06:39.463Z,-1.18
2022-12-11T05:11:42.299Z,-1.19
2022-12-11T05:16:46.460Z,-1.16
2022-12-11T05:21:49.186Z,-1.13
2022-12-11T05:26:51.916Z,-1.15
2022-12-11T05:31:56.083Z,-1.19
2022-12-11T05:36:58.870Z,-1.18
2022-12-11T05:42:01.818Z,-1.20
2022-12-11T05:47:05.999Z,-1.19
2022-12-11T05:52:08.823Z,-1.26
2022-12-11T05:57:11.605Z,-1.26
2022-12-11T06:02:15.932Z,-1.20
2022-12-11T06:07:18.953Z,-1.30
2022-12-11T06:12:21.717Z,-1.28
2022-12-11T06:17:25.854Z,-1.22
2022-12-11T06:22:28.597Z,-1.19
2022-12-11T06:27:31.447Z,-1.18
2022-12-11T06:32:35.545Z,-1.16
2022-12-11T06:37:38.987Z,-1.16
2022-12-11T06:42:41.842Z,-1.16
2022-12-11T06:47:46.097Z,-1.16
2022-12-11T06:52:48.805Z,-1.23
2022-12-11T06:57:51.630Z,-1.22
2022-12-11T07:02:56.039Z,-1.18
2022-12-11T07:07:59.333Z,-1.16
2022-12-11T07:13:02.315Z,-1.20
2022-12-11T07:18:07.340Z,-1.22
2022-12-11T07:23:10.152Z,-1.22
2022-12-11T07:28:16.673Z,-1.16
2022-12-11T07:33:21.035Z,-1.16
2022-12-11T07:38:23.874Z,-1.15
2022-12-11T07:43:26.828Z,-1.12
2022-12-11T07:48:31.709Z,-1.16
2022-12-11T07:53:34.557Z,-1.11
2022-12-11T07:58:38.999Z,-1.05
2022-12-11T08:03:43.421Z,-1.02
2022-12-11T08:08:47.449Z,-1.03
2022-12-11T08:13:51.001Z,-0.93
2022-12-11T08:18:56.002Z,-1.01
2022-12-11T08:23:59.753Z,-0.98
2022-12-11T08:29:03.189Z,-0.97
2022-12-11T08:34:07.829Z,-0.95
2022-12-11T08:39:11.068Z,-0.92
2022-12-11T08:44:16.545Z,-0.84
2022-12-11T08:49:21.745Z,-0.78
2022-12-11T08:54:25.150Z,-0.75
2022-12-11T08:59:28.070Z,-0.70
2022-12-11T09:04:32.488Z,-0.71
2022-12-11T09:09:35.282Z,-0.75
2022-12-11T09:14:38.218Z,-0.62
2022-12-11T09:19:42.649Z,-0.68
2022-12-11T09:24:46.210Z,-0.55
2022-12-11T09:29:49.470Z,-0.49
2022-12-11T09:34:53.870Z,-0.43
2022-12-11T09:40:01.281Z,-0.50
2022-12-11T09:45:14.914Z,-0.53
2022-12-11T09:50:24.201Z,-0.51
2022-12-11T09:55:38.767Z,-0.47
2022-12-11T10:00:48.098Z,-0.40
2022-12-11T10:06:04.489Z,-0.35
2022-12-11T10:11:28.214Z,-0.29
2022-12-11T10:16:37.661Z,-0.14
2022-12-11T10:21:43.425Z,0.03
2022-12-11T10:26:47.711Z,0.10
2022-12-11T10:31:54.505Z,0.04
2022-12-11T10:37:00.695Z,0.13
2022-12-11T10:42:17.557Z,0.16
2022-12-11T10:47:20.268Z,0.08
2022-12-11T10:52:26.889Z,0.10
2022-12-11T10:57:33.243Z,0.07
2022-12-11T11:02:37.779Z,-0.03
2022-12-11T11:07:42.538Z,0.01
2022-12-11T11:12:47.618Z,0.07
2022-12-11T11:17:55.872Z,0.08
2022-12-11T11:23:03.960Z,0.06
2022-12-11T11:28:17.180Z,0.00
2022-12-11T11:33:23.754Z,-0.04
2022-12-11T11:38:32.015Z,0.02
2022-12-11T11:43:39.660Z,0.13
2022-12-11T11:48:51.599Z,0.03
2022-12-11T11:54:00.467Z,0.16
2022-12-11T11:59:12.993Z,0.19
2022-12-11T12:04:16.046Z,0.15
2022-12-11T12:09:35.074Z,0.03
2022-12-11T12:14:52.439Z,0.02
2022-12-11T12:20:04.941Z,0.23
2022-12-11T12:25:19.829Z,0.19
2022-12-11T12:30:23.888Z,0.06
2022-12-11T12:35:36.050Z,0.37
2022-12-11T12:40:58.995Z,0.42
2022-12-11T12:46:12.132Z,0.45
2022-12-11T12:51:16.400Z,0.35
2022-12-11T12:56:21.678Z,0.19
2022-12-11T13:01:27.132Z,0.13
2022-12-11T13:06:34.369Z,0.15
2022-12-11T13:11:38.645Z,0.09
2022-12-11T13:16:42.846Z,0.16
2022-12-11T13:21:56.964Z,0.13
2022-12-11T13:27:13.019Z,0.15
2022-12-11T13:32:24.974Z,0.20
2022-12-11T13:37:33.032Z,0.20
2022-12-11T13:42:41.710Z,0.19
2022-12-11T13:47:45.996Z,0.21
2022-12-11T13:52:54.650Z,0.06
2022-12-11T13:58:00.238Z,0.08
2022-12-11T14:03:07.395Z,0.26
2022-12-11T14:08:11.168Z,0.16
2022-12-11T14:13:21.204Z,0.17
2022-12-11T14:18:27.513Z,0.06
2022-12-11T14:23:32.426Z,0.07
2022-12-11T14:28:42.921Z,0.04
2022-12-11T14:33:50.009Z,0.03
2022-12-11T14:38:59.344Z,-0.03
2022-12-11T14:44:07.711Z,-0.05
2022-12-11T14:49:21.620Z,-0.05
2022-12-11T14:54:30.732Z,-0.10
2022-12-11T14:59:42.480Z,-0.16
2022-12-11T15:04:45.452Z,-0.15
2022-12-11T15:09:48.447Z,-0.25
2022-12-11T15:14:55.347Z,-0.24
2022-12-11T15:20:06.450Z,-0.31
2022-12-11T15:25:20.569Z,-0.34
2022-12-11T15:30:34.710Z,-0.36
2022-12-11T15:35:39.582Z,-0.38
2022-12-11T15:40:42.534Z,-0.40
2022-12-11T15:45:47.030Z,-0.41
2022-12-11T15:50:50.184Z,-0.41
2022-12-11T15:55:54.038Z,-0.43
2022-12-11T16:00:58.452Z,-0.47
2022-12-11T16:06:01.265Z,-0.53
2022-12-11T16:11:04.196Z,-0.53
2022-12-11T16:16:09.089Z,-0.52
2022-12-11T16:21:15.641Z,-0.49
2022-12-11T16:26:22.540Z,-0.51
2022-12-11T16:31:26.732Z,-0.55
2022-12-11T16:36:29.611Z,-0.53
2022-12-11T16:41:32.858Z,-0.54
2022-12-11T16:46:37.321Z,-0.55
2022-12-11T16:51:40.349Z,-0.59
2022-12-11T16:56:44.259Z,-0.52
2022-12-11T17:01:50.457Z,-0.53
2022-12-11T17:06:53.341Z,-0.54
2022-12-11T17:11:56.129Z,-0.54
2022-12-11T17:17:00.345Z,-0.62
2022-12-11T17:22:04.555Z,-0.60
2022-12-11T17:27:07.389Z,-0.54
2022-12-11T17:32:12.220Z,-0.56
2022-12-11T17:37:14.997Z,-0.53
2022-12-11T17:42:17.792Z,-0.57
2022-12-11T17:47:21.998Z,-0.56
2022-12-11T17:52:27.340Z,-0.53
2022-12-11T17:57:34.129Z,-0.54
2022-12-11T18:02:38.475Z,-0.53
2022-12-11T18:07:41.305Z,-0.56
2022-12-11T18:12:44.258Z,-0.50
2022-12-11T18:17:48.516Z,-0.48
2022-12-11T18:22:52.069Z,-0.45
2022-12-11T18:27:56.706Z,-0.46
2022-12-11T18:33:01.021Z,-0.45
2022-12-11T18:38:04.871Z,-0.45
2022-12-11T18:43:07.883Z,-0.47
2022-12-11T18:48:13.205Z,-0.41
2022-12-11T18:53:16.890Z,-0.41
2022-12-11T18:58:20.984Z,-0.41
2022-12-11T19:03:25.438Z,-0.39
2022-12-11T19:08:28.349Z,-0.43
2022-12-11T19:13:31.230Z,-0.42
2022-12-11T19:18:35.479Z,-0.40
2022-12-11T19:23:38.478Z,-0.45
2022-12-11T19:28:41.576Z,-0.50
2022-12-11T19:33:46.796Z,-0.47
2022-12-11T19:38:50.112Z,-0.47
2022-12-11T19:43:53.053Z,-0.49
2022-12-11T19:49:00.330Z,-0.55
2022-12-11T19:54:04.302Z,-0.55
2022-12-11T19:59:10.106Z,-0.57
2022-12-11T20:04:16.406Z,-0.68
2022-12-11T20:09:19.363Z,-0.66
2022-12-11T20:14:25.051Z,-0.73
2022-12-11T20:19:29.807Z,-0.78
2022-12-11T20:24:33.153Z,-0.81
2022-12-11T20:29:35.982Z,-0.75
2022-12-11T20:34:40.520Z,-0.73
2022-12-11T20:39:43.358Z,-0.69
2022-12-11T20:44:49.227Z,-0.68
2022-12-11T20:49:53.697Z,-0.70
2022-12-11T20:54:56.580Z,-0.69
2022-12-11T20:59:59.642Z,-0.74
2022-12-11T21:05:04.517Z,-0.76
2022-12-11T21:10:08.240Z,-0.75
2022-12-11T21:15:11.945Z,-0.72
2022-12-11T21:20:16.415Z,-0.74
2022-12-11T21:25:19.400Z,-0.75
2022-12-11T21:30:23.494Z,-0.73
2022-12-11T21:35:27.771Z,-0.74
2022-12-11T21:40:31.965Z,-0.72
2022-12-11T21:46:00.435Z,-0.71
2022-12-11T21:51:08.128Z,-0.69
2022-12-11T21:56:13.286Z,-0.67
2022-12-11T22:01:18.979Z,-0.74
2022-12-11T22:06:23.264Z,-0.77
2022-12-11T22:11:28.769Z,-0.81
2022-12-11T22:16:31.903Z,-0.82
2022-12-11T22:21:36.193Z,-0.81
2022-12-11T22:26:39.072Z,-0.79
2022-12-11T22:31:41.853Z,-0.73
2022-12-11T22:36:45.936Z,-0.74
2022-12-11T22:41:48.851Z,-0.73
2022-12-11T22:46:51.769Z,-0.71
2022-12-11T22:51:57.306Z,-0.73
2022-12-11T22:57:00.136Z,-0.72
2022-12-11T23:02:03.184Z,-0.74
2022-12-11T23:07:07.944Z,-0.71
2022-12-11T23:12:10.869Z,-0.76
2022-12-11T23:17:14.579Z,-0.73
2022-12-11T23:22:18.993Z,-0.74
2022-12-11T23:27:21.786Z,-0.74
2022-12-11T23:32:24.635Z,-0.79
2022-12-11T23:37:28.736Z,-0.75
2022-12-11T23:42:31.514Z,-0.69
2022-12-11T23:47:34.327Z,-0.69
2022-12-11T23:52:38.522Z,-0.68
2022-12-11T23:57:41.352Z,-0.66
